Time;durP1;ratioP1;P1;durP2;ratioP2;P2;SDS_P1;SDS_P2;PMS_P1;PMS_P2;Temp;Humidity;BMP_temperature;BMP_pressure;BME280_temperature;BME280_humidity;BME280_pressure;Samples;Min_cycle;Max_cycle;Signal;HPM_P1;HPM_P2
2022/05/05 00:02:02;;;;;;;8.93;5.15;;;;;;;;;;4823678;29;20030;-62
2022/05/05 00:04:28;;;;;;;8.55;4.70;;;;;;;;;;4823517;29;20400;-62
2022/05/05 00:06:54;;;;;;;7.63;4.70;;;;;;;;;;4824073;29;20042;-62
2022/05/05 00:09:20;;;;;;;7.35;4.82;;;;;;;;;;4824088;29;20105;-62
2022/05/05 00:14:31;;;;;;;9.38;5.20;;;;;;;;;;4823142;29;20107;-62
2022/05/05 00:17:06;;;;;;;9.77;5.30;;;;;;;;;;4822943;29;20093;-62
2022/05/05 00:19:34;;;;;;;8.02;5.00;;;;;;;;;;4823613;29;20110;-60
2022/05/05 00:22:00;;;;;;;9.43;5.25;;;;;;;;;;4823452;29;20526;-62
2022/05/05 00:24:26;;;;;;;9.88;5.00;;;;;;;;;;4823420;29;20113;-61
2022/05/05 00:26:52;;;;;;;9.63;5.60;;;;;;;;;;4823153;29;20432;-62
2022/05/05 00:29:19;;;;;;;7.25;5.18;;;;;;;;;;4823324;29;20075;-62
2022/05/05 00:31:45;;;;;;;7.88;5.35;;;;;;;;;;4823231;29;20388;-62
2022/05/05 00:34:12;;;;;;;8.82;5.10;;;;;;;;;;4823131;29;20034;-62
2022/05/05 00:36:38;;;;;;;10.18;5.50;;;;;;;;;;4823153;29;20100;-62
2022/05/05 00:39:05;;;;;;;10.07;5.25;;;;;;;;;;4823213;29;20041;-62
2022/05/05 00:41:38;;;;;;;10.45;5.43;;;;;;;;;;4823301;29;20041;-62
2022/05/05 00:44:05;;;;;;;8.63;5.82;;;;;;;;;;4823271;29;20038;-62
2022/05/05 00:46:32;;;;;;;10.60;5.57;;;;;;;;;;4823033;29;20038;-62
2022/05/05 00:48:58;;;;;;;12.52;5.90;;;;;;;;;;4822804;29;20067;-62
2022/05/05 00:51:24;;;;;;;9.93;5.78;;;;;;;;;;4823125;29;20035;-61
2022/05/05 00:53:51;;;;;;;11.73;5.93;;;;;;;;;;4822996;29;20038;-62
2022/05/05 00:56:18;;;;;;;9.60;6.00;;;;;;;;;;4822904;29;20041;-61
2022/05/05 00:58:44;;;;;;;8.77;5.30;;;;;;;;;;4823115;29;20041;-62
2022/05/05 01:01:10;;;;;;;7.00;5.18;;;;;;;;;;4822734;29;20065;-60
2022/05/05 01:03:37;;;;;;;10.02;5.68;;;;;;;;;;4822860;29;20103;-61
2022/05/05 01:06:04;;;;;;;7.78;5.35;;;;;;;;;;4822983;29;20037;-61
2022/05/05 01:08:30;;;;;;;7.05;5.35;;;;;;;;;;4822935;29;20483;-61
2022/05/05 01:10:56;;;;;;;7.80;5.32;;;;;;;;;;4822909;29;20395;-61
2022/05/05 01:13:25;;;;;;;10.13;6.45;;;;;;;;;;4822718;29;20491;-62
2022/05/05 01:15:51;;;;;;;10.93;5.80;;;;;;;;;;4822657;29;20045;-62
2022/05/05 01:18:17;;;;;;;9.85;5.78;;;;;;;;;;4822998;29;20026;-60
2022/05/05 01:20:47;;;;;;;9.35;5.70;;;;;;;;;;4822472;29;20065;-62
2022/05/05 01:23:14;;;;;;;11.38;6.05;;;;;;;;;;4822837;29;20038;-62
2022/05/05 01:28:25;;;;;;;10.43;6.20;;;;;;;;;;4822633;29;20525;-62
2022/05/05 01:30:51;;;;;;;11.13;5.88;;;;;;;;;;4822542;29;20066;-62
2022/05/05 01:33:19;;;;;;;11.90;6.25;;;;;;;;;;4822944;29;20034;-62
2022/05/05 01:35:47;;;;;;;8.05;5.68;;;;;;;;;;4822590;29;20033;-62
2022/05/05 01:38:15;;;;;;;10.95;5.65;;;;;;;;;;4822800;29;20086;-62
2022/05/05 01:40:43;;;;;;;12.20;6.57;;;;;;;;;;4822389;29;20035;-62
2022/05/05 01:43:10;;;;;;;8.68;6.38;;;;;;;;;;4822441;29;20041;-62
2022/05/05 01:45:36;;;;;;;8.70;5.93;;;;;;;;;;4822446;29;20041;-62
2022/05/05 01:48:03;;;;;;;8.55;6.25;;;;;;;;;;4822311;29;20022;-62
2022/05/05 01:50:31;;;;;;;7.95;5.38;;;;;;;;;;4822424;29;20038;-60
2022/05/05 01:52:57;;;;;;;12.32;6.80;;;;;;;;;;4822324;29;20022;-62
2022/05/05 01:55:23;;;;;;;11.65;6.05;;;;;;;;;;4822396;29;20423;-60
2022/05/05 01:57:49;;;;;;;13.15;6.53;;;;;;;;;;4822037;29;20042;-60
2022/05/05 02:00:16;;;;;;;8.30;6.20;;;;;;;;;;4821206;29;20041;-61
2022/05/05 02:02:45;;;;;;;10.00;6.85;;;;;;;;;;4823804;29;20110;-61
2022/05/05 02:05:12;;;;;;;9.88;6.20;;;;;;;;;;4823390;29;20133;-60
2022/05/05 02:07:38;;;;;;;9.52;6.40;;;;;;;;;;4822061;29;20038;-67
2022/05/05 02:10:05;;;;;;;10.02;6.28;;;;;;;;;;4821893;29;20098;-60
2022/05/05 02:12:32;;;;;;;11.23;6.65;;;;;;;;;;4821867;29;20051;-60
2022/05/05 02:14:58;;;;;;;9.45;6.43;;;;;;;;;;4821655;29;20034;-59
2022/05/05 02:17:25;;;;;;;11.43;6.55;;;;;;;;;;4821684;29;20160;-60
2022/05/05 02:19:51;;;;;;;10.52;6.93;;;;;;;;;;4821965;29;20031;-59
2022/05/05 02:22:17;;;;;;;12.95;7.18;;;;;;;;;;4821967;29;20030;-61
2022/05/05 02:24:43;;;;;;;11.18;6.63;;;;;;;;;;4821898;29;20053;-61
2022/05/05 02:27:09;;;;;;;11.98;7.05;;;;;;;;;;4821759;29;20404;-59
2022/05/05 02:29:35;;;;;;;10.43;7.50;;;;;;;;;;4821652;29;20420;-71
2022/05/05 02:32:01;;;;;;;14.68;7.50;;;;;;;;;;4821758;29;20038;-59
2022/05/05 02:34:27;;;;;;;10.98;7.45;;;;;;;;;;4821512;29;20053;-64
2022/05/05 02:39:38;;;;;;;11.57;7.25;;;;;;;;;;4821824;29;20045;-60
2022/05/05 02:42:05;;;;;;;11.55;7.60;;;;;;;;;;4821529;29;20065;-59
2022/05/05 02:44:31;;;;;;;13.05;7.30;;;;;;;;;;4821849;29;20456;-69
2022/05/05 02:46:59;;;;;;;12.80;7.78;;;;;;;;;;4821604;29;20035;-63
2022/05/05 02:49:27;;;;;;;11.98;7.43;;;;;;;;;;4821793;29;20520;-71
2022/05/05 02:51:53;;;;;;;12.48;7.70;;;;;;;;;;4821601;29;20058;-59
2022/05/05 02:57:04;;;;;;;15.00;7.88;;;;;;;;;;4821627;29;20572;-63
2022/05/05 02:59:30;;;;;;;14.32;7.43;;;;;;;;;;4821782;29;20030;-62
2022/05/05 03:01:56;;;;;;;11.85;7.53;;;;;;;;;;4821631;29;20034;-59
2022/05/05 03:04:22;;;;;;;12.60;7.57;;;;;;;;;;4821325;29;20050;-63
2022/05/05 03:06:49;;;;;;;12.38;7.85;;;;;;;;;;4821449;29;20035;-60
2022/05/05 03:09:15;;;;;;;10.93;7.35;;;;;;;;;;4821359;29;20388;-60
2022/05/05 03:11:41;;;;;;;14.05;7.82;;;;;;;;;;4823704;29;20105;-70
2022/05/05 03:14:07;;;;;;;18.20;7.78;;;;;;;;;;4824586;29;20172;-66
2022/05/05 03:16:33;;;;;;;10.90;7.63;;;;;;;;;;4824457;29;20476;-66
2022/05/05 03:18:59;;;;;;;12.02;7.40;;;;;;;;;;4824324;29;20407;-65
2022/05/05 03:21:25;;;;;;;13.07;7.43;;;;;;;;;;4824169;29;20509;-69
2022/05/05 03:23:51;;;;;;;9.95;7.70;;;;;;;;;;4824440;29;20039;-60
2022/05/05 03:26:17;;;;;;;15.88;8.13;;;;;;;;;;4824352;29;20390;-64
2022/05/05 03:28:44;;;;;;;12.85;7.68;;;;;;;;;;4824283;29;20919;-60
2022/05/05 03:31:10;;;;;;;15.18;8.15;;;;;;;;;;4824249;29;20801;-71
2022/05/05 03:33:36;;;;;;;11.75;7.72;;;;;;;;;;4824168;29;20091;-60
2022/05/05 03:36:03;;;;;;;14.55;7.78;;;;;;;;;;4824588;29;20046;-69
2022/05/05 03:38:29;;;;;;;12.98;8.02;;;;;;;;;;4824248;29;20076;-60
2022/05/05 03:40:55;;;;;;;11.30;7.45;;;;;;;;;;4824262;29;20407;-70
2022/05/05 03:43:21;;;;;;;10.88;7.13;;;;;;;;;;4824508;29;20034;-66
2022/05/05 03:45:48;;;;;;;10.43;7.90;;;;;;;;;;4824109;29;20058;-59
2022/05/05 03:48:14;;;;;;;12.82;7.93;;;;;;;;;;4824144;29;20034;-59
2022/05/05 03:50:40;;;;;;;12.52;7.43;;;;;;;;;;4824195;29;20535;-71
2022/05/05 03:53:06;;;;;;;14.40;7.80;;;;;;;;;;4823957;29;20059;-60
2022/05/05 03:55:32;;;;;;;13.13;7.28;;;;;;;;;;4823915;29;20038;-63
2022/05/05 03:57:58;;;;;;;16.20;7.25;;;;;;;;;;4807034;29;20444;-64
2022/05/05 04:00:25;;;;;;;14.00;6.97;;;;;;;;;;4824028;29;20081;-68
2022/05/05 04:05:39;;;;;;;16.60;7.80;;;;;;;;;;4823917;29;20179;-60
2022/05/05 04:08:05;;;;;;;18.58;10.52;;;;;;;;;;4823785;29;20133;-62
2022/05/05 04:10:31;;;;;;;11.80;7.97;;;;;;;;;;4823978;29;20034;-62
2022/05/05 04:12:58;;;;;;;10.48;7.10;;;;;;;;;;4823394;29;20053;-61
2022/05/05 04:15:24;;;;;;;16.60;7.00;;;;;;;;;;4823905;29;20034;-71
2022/05/05 04:17:51;;;;;;;18.27;7.45;;;;;;;;;;4823585;29;20125;-70
2022/05/05 04:20:17;;;;;;;16.95;7.40;;;;;;;;;;4823523;29;20487;-60
2022/05/05 04:22:44;;;;;;;15.98;7.32;;;;;;;;;;4823127;29;20067;-60
2022/05/05 04:25:12;;;;;;;15.70;7.68;;;;;;;;;;4823544;29;20520;-60
2022/05/05 04:27:39;;;;;;;17.50;8.75;;;;;;;;;;4823181;29;20030;-62
2022/05/05 04:30:05;;;;;;;18.38;8.00;;;;;;;;;;4823566;29;20070;-63
2022/05/05 04:32:31;;;;;;;16.02;7.30;;;;;;;;;;4822972;29;20429;-60
2022/05/05 04:34:57;;;;;;;13.75;7.28;;;;;;;;;;4822964;29;20042;-69
2022/05/05 04:37:23;;;;;;;15.82;6.97;;;;;;;;;;4823230;29;20073;-64
2022/05/05 04:39:49;;;;;;;28.05;10.02;;;;;;;;;;4823006;29;20479;-73
2022/05/05 04:42:15;;;;;;;17.33;8.95;;;;;;;;;;4822866;29;20098;-60
2022/05/05 04:44:42;;;;;;;21.10;9.02;;;;;;;;;;4823093;29;20105;-67
2022/05/05 04:47:08;;;;;;;16.73;7.72;;;;;;;;;;4822949;29;20045;-72
2022/05/05 04:49:35;;;;;;;14.02;7.65;;;;;;;;;;4822957;29;20540;-60
2022/05/05 04:52:01;;;;;;;14.88;7.70;;;;;;;;;;4823010;29;20038;-61
2022/05/05 04:54:27;;;;;;;15.10;7.32;;;;;;;;;;4823069;29;20074;-62
2022/05/05 04:56:53;;;;;;;19.17;9.75;;;;;;;;;;4823098;29;20069;-61
2022/05/05 04:59:19;;;;;;;14.52;8.48;;;;;;;;;;4823043;29;20393;-64
2022/05/05 05:01:45;;;;;;;14.85;6.93;;;;;;;;;;4822900;29;20026;-60
2022/05/05 05:04:11;;;;;;;16.10;8.00;;;;;;;;;;4817360;29;20063;-62
2022/05/05 05:06:37;;;;;;;12.82;7.00;;;;;;;;;;4804749;29;20038;-60
2022/05/05 05:09:03;;;;;;;14.77;6.63;;;;;;;;;;4804263;29;20050;-62
2022/05/05 05:11:29;;;;;;;15.35;6.57;;;;;;;;;;4804495;29;20027;-71
2022/05/05 05:13:55;;;;;;;18.38;8.85;;;;;;;;;;4804623;29;20027;-62
2022/05/05 05:16:21;;;;;;;10.00;6.78;;;;;;;;;;4804480;29;20092;-62
2022/05/05 05:18:50;;;;;;;14.38;6.25;;;;;;;;;;4804373;29;20042;-60
2022/05/05 05:21:16;;;;;;;13.32;6.65;;;;;;;;;;4804449;29;20035;-62
2022/05/05 05:23:42;;;;;;;10.90;6.82;;;;;;;;;;4804409;29;20597;-67
2022/05/05 05:26:08;;;;;;;12.38;6.45;;;;;;;;;;4804496;29;20549;-63
2022/05/05 05:28:34;;;;;;;11.05;6.18;;;;;;;;;;4804226;29;20222;-60
2022/05/05 05:31:00;;;;;;;13.55;6.88;;;;;;;;;;4804235;29;20415;-60
2022/05/05 05:33:26;;;;;;;17.10;7.20;;;;;;;;;;4803394;29;20543;-60
2022/05/05 05:35:52;;;;;;;16.02;7.13;;;;;;;;;;4803791;29;20077;-60
2022/05/05 05:38:22;;;;;;;14.25;7.18;;;;;;;;;;4804264;29;20053;-60
2022/05/05 05:40:48;;;;;;;13.95;6.93;;;;;;;;;;4804062;29;20136;-60
2022/05/05 05:43:14;;;;;;;14.80;7.72;;;;;;;;;;4803959;29;20095;-60
2022/05/05 05:45:40;;;;;;;15.95;7.25;;;;;;;;;;4803550;29;20031;-59
2022/05/05 05:48:07;;;;;;;16.10;7.65;;;;;;;;;;4803084;29;20039;-60
2022/05/05 05:50:33;;;;;;;17.17;8.15;;;;;;;;;;4802657;29;20086;-65
2022/05/05 05:52:59;;;;;;;20.98;8.18;;;;;;;;;;4802509;29;20109;-60
2022/05/05 05:55:26;;;;;;;15.07;8.23;;;;;;;;;;4802866;29;20023;-63
2022/05/05 05:57:52;;;;;;;17.52;8.13;;;;;;;;;;4802595;29;20514;-60
2022/05/05 06:00:18;;;;;;;21.98;8.32;;;;;;;;;;4802609;29;20129;-60
2022/05/05 06:05:28;;;;;;;16.23;7.63;;;;;;;;;;4819699;29;20060;-63
2022/05/05 06:08:01;;;;;;;15.00;7.40;;;;;;;;;;4820765;29;20038;-62
2022/05/05 06:10:28;;;;;;;14.38;7.18;;;;;;;;;;4824272;29;20083;-63
2022/05/05 06:12:55;;;;;;;15.65;8.80;;;;;;;;;;4827027;29;20034;-63
2022/05/05 06:15:22;;;;;;;14.93;8.27;;;;;;;;;;4829951;29;20030;-63
2022/05/05 06:17:48;;;;;;;15.02;8.85;;;;;;;;;;4830259;29;20073;-63
2022/05/05 06:20:14;;;;;;;15.90;9.38;;;;;;;;;;4829301;29;20070;-63
2022/05/05 06:22:41;;;;;;;18.05;8.32;;;;;;;;;;4829658;29;20033;-63
2022/05/05 06:25:07;;;;;;;14.68;9.00;;;;;;;;;;4830769;29;20029;-63
2022/05/05 06:27:33;;;;;;;18.83;9.38;;;;;;;;;;4826408;29;20036;-63
2022/05/05 06:30:03;;;;;;;18.02;9.65;;;;;;;;;;4829874;29;20105;-63
2022/05/05 06:32:29;;;;;;;18.15;9.70;;;;;;;;;;4830287;29;20086;-63
2022/05/05 06:34:55;;;;;;;19.30;9.27;;;;;;;;;;4829001;29;20075;-62
2022/05/05 06:37:23;;;;;;;14.63;9.27;;;;;;;;;;4829437;29;20045;-63
2022/05/05 06:39:49;;;;;;;16.92;8.90;;;;;;;;;;4823348;29;20058;-63
2022/05/05 06:42:15;;;;;;;15.90;8.85;;;;;;;;;;4821503;29;20492;-63
2022/05/05 06:44:41;;;;;;;16.10;8.95;;;;;;;;;;4821353;29;20045;-63
2022/05/05 06:47:07;;;;;;;15.90;8.38;;;;;;;;;;4824515;29;20041;-62
2022/05/05 06:49:34;;;;;;;17.52;8.50;;;;;;;;;;4831408;29;20046;-62
2022/05/05 06:52:00;;;;;;;20.60;8.98;;;;;;;;;;4824608;29;20042;-63
2022/05/05 06:54:29;;;;;;;14.70;7.75;;;;;;;;;;4827247;29;20034;-62
2022/05/05 06:56:55;;;;;;;16.95;7.95;;;;;;;;;;4828838;29;20034;-63
2022/05/05 06:59:21;;;;;;;14.95;7.93;;;;;;;;;;4824711;29;20038;-62
2022/05/05 07:01:53;;;;;;;15.20;7.47;;;;;;;;;;4824591;29;20379;-63
2022/05/05 07:07:04;;;;;;;10.65;6.50;;;;;;;;;;4829599;29;19960;-66
2022/05/05 07:12:15;;;;;;;11.45;6.35;;;;;;;;;;4842400;29;20067;-62
2022/05/05 07:14:43;;;;;;;15.50;6.90;;;;;;;;;;4842952;29;20034;-62
2022/05/05 07:17:09;;;;;;;8.45;5.28;;;;;;;;;;4842452;29;20045;-62
2022/05/05 07:19:35;;;;;;;13.25;6.63;;;;;;;;;;4842820;29;20029;-63
2022/05/05 07:22:02;;;;;;;9.45;5.38;;;;;;;;;;4842387;29;20376;-63
2022/05/05 07:24:29;;;;;;;10.07;5.22;;;;;;;;;;4842126;29;20026;-63
2022/05/05 07:26:55;;;;;;;11.70;5.20;;;;;;;;;;4842575;29;20498;-63
2022/05/05 07:29:21;;;;;;;10.68;5.20;;;;;;;;;;4842560;29;20034;-62
2022/05/05 07:31:47;;;;;;;10.60;4.97;;;;;;;;;;4841096;29;20397;-62
2022/05/05 07:34:14;;;;;;;7.82;4.70;;;;;;;;;;4842517;29;20033;-62
2022/05/05 07:36:40;;;;;;;8.18;4.57;;;;;;;;;;4842290;29;20510;-63
2022/05/05 07:39:06;;;;;;;10.88;5.03;;;;;;;;;;4842194;29;20102;-63
2022/05/05 07:41:32;;;;;;;6.65;4.30;;;;;;;;;;4842085;29;20069;-63
2022/05/05 07:43:58;;;;;;;11.30;4.75;;;;;;;;;;4842274;29;20033;-64
2022/05/05 07:46:24;;;;;;;8.07;4.57;;;;;;;;;;4841934;29;20044;-63
2022/05/05 07:48:51;;;;;;;10.63;5.03;;;;;;;;;;4841935;29;20644;-63
2022/05/05 07:51:17;;;;;;;10.15;4.47;;;;;;;;;;4842197;29;20037;-63
2022/05/05 07:54:34;;;;;;;10.15;4.45;;;;;;;;;;4841929;29;20026;-62
2022/05/05 07:56:29;;;;;;;8.13;4.55;;;;;;;;;;4841371;29;20407;-62
2022/05/05 07:58:55;;;;;;;11.02;4.68;;;;;;;;;;4841117;29;20058;-62
2022/05/05 08:01:22;;;;;;;9.73;4.85;;;;;;;;;;4842230;29;20049;-62
2022/05/05 08:03:48;;;;;;;9.80;4.68;;;;;;;;;;4841781;29;20042;-62
2022/05/05 08:06:14;;;;;;;8.88;5.03;;;;;;;;;;4842139;29;20155;-62
2022/05/05 08:08:40;;;;;;;8.82;4.68;;;;;;;;;;4824913;29;20057;-59
2022/05/05 08:11:06;;;;;;;8.50;4.75;;;;;;;;;;4841427;29;20082;-60
2022/05/05 08:13:33;;;;;;;8.43;4.80;;;;;;;;;;4842026;29;20638;-62
2022/05/05 08:15:59;;;;;;;9.18;4.57;;;;;;;;;;4841371;29;20030;-61
2022/05/05 08:18:25;;;;;;;11.18;4.68;;;;;;;;;;4829607;29;20043;-62
2022/05/05 08:20:51;;;;;;;8.77;4.50;;;;;;;;;;4823354;29;20440;-61
2022/05/05 08:23:17;;;;;;;8.90;4.65;;;;;;;;;;4823346;29;20150;-64
2022/05/05 08:28:28;;;;;;;6.78;4.38;;;;;;;;;;4822779;29;20041;-62
2022/05/05 08:30:55;;;;;;;9.45;4.45;;;;;;;;;;4822561;29;20049;-62
2022/05/05 08:33:23;;;;;;;8.98;4.10;;;;;;;;;;4823073;29;20033;-62
2022/05/05 08:35:49;;;;;;;8.68;4.78;;;;;;;;;;4823108;29;20031;-62
2022/05/05 08:38:17;;;;;;;8.55;4.68;;;;;;;;;;4822927;29;20039;-63
2022/05/05 08:40:44;;;;;;;9.07;4.97;;;;;;;;;;4822165;29;20060;-63
2022/05/05 08:43:10;;;;;;;8.80;4.32;;;;;;;;;;4828365;29;20042;-62
2022/05/05 08:45:38;;;;;;;8.85;4.63;;;;;;;;;;4825003;29;20094;-62
2022/05/05 08:48:08;;;;;;;7.35;4.35;;;;;;;;;;4824180;29;20526;-63
2022/05/05 08:50:36;;;;;;;8.05;5.00;;;;;;;;;;4829639;29;20037;-61
2022/05/05 08:53:04;;;;;;;13.77;4.90;;;;;;;;;;4807532;29;20421;-62
2022/05/05 08:55:31;;;;;;;7.25;4.38;;;;;;;;;;4813248;29;20081;-63
2022/05/05 08:57:58;;;;;;;11.48;4.75;;;;;;;;;;4812692;29;20407;-62
2022/05/05 09:00:27;;;;;;;7.32;4.68;;;;;;;;;;4814151;29;20032;-63
2022/05/05 09:02:54;;;;;;;6.07;3.92;;;;;;;;;;4813393;29;20034;-63
2022/05/05 09:05:39;;;;;;;7.20;4.20;;;;;;;;;;4807557;29;20057;-64
2022/05/05 09:08:05;;;;;;;7.22;4.18;;;;;;;;;;4799131;29;20037;-63
2022/05/05 09:10:42;;;;;;;8.63;4.80;;;;;;;;;;4792756;29;20050;-63
2022/05/05 09:13:08;;;;;;;8.90;4.78;;;;;;;;;;4799614;29;20039;-62
2022/05/05 09:15:35;;;;;;;9.07;4.78;;;;;;;;;;4795467;29;20456;-61
2022/05/05 09:18:11;;;;;;;7.93;4.85;;;;;;;;;;4800573;29;20125;-63
2022/05/05 09:20:37;;;;;;;7.28;4.60;;;;;;;;;;4802929;29;20667;-62
2022/05/05 09:23:03;;;;;;;8.82;4.70;;;;;;;;;;4797789;29;20091;-62
2022/05/05 09:25:45;;;;;;;8.10;4.68;;;;;;;;;;4810461;29;20387;-62
2022/05/05 09:28:21;;;;;;;10.00;4.63;;;;;;;;;;4812536;29;20038;-62
2022/05/05 09:30:54;;;;;;;8.95;4.60;;;;;;;;;;4820343;29;20031;-62
2022/05/05 09:33:37;;;;;;;6.10;4.35;;;;;;;;;;4819636;29;20026;-62
2022/05/05 09:36:05;;;;;;;7.18;4.55;;;;;;;;;;4803823;29;20503;-62
2022/05/05 09:38:52;;;;;;;9.10;4.90;;;;;;;;;;4820552;29;20139;-62
2022/05/05 09:41:25;;;;;;;9.73;4.80;;;;;;;;;;4819271;29;20034;-62
2022/05/05 09:43:53;;;;;;;6.68;4.35;;;;;;;;;;4822365;29;20113;-65
2022/05/05 09:46:40;;;;;;;9.20;4.50;;;;;;;;;;4819865;29;20031;-64
2022/05/05 09:49:12;;;;;;;6.13;4.18;;;;;;;;;;4811513;29;20058;-63
2022/05/05 09:51:46;;;;;;;6.88;4.07;;;;;;;;;;4803698;29;20038;-62
2022/05/05 09:59:50;;;;;;;7.18;3.60;;;;;;;;;;4803732;29;20038;-63
2022/05/05 10:04:00;;;;;;;6.22;3.88;;;;;;;;;;4803684;29;20023;-62
2022/05/05 10:05:11;;;;;;;9.80;3.90;;;;;;;;;;4803030;29;20062;-64
2022/05/05 10:07:39;;;;;;;7.35;4.00;;;;;;;;;;4803882;29;20070;-64
2022/05/05 10:10:07;;;;;;;6.43;4.10;;;;;;;;;;4810318;29;20029;-62
2022/05/05 10:12:34;;;;;;;8.07;3.83;;;;;;;;;;4809422;29;20044;-63
2022/05/05 10:15:00;;;;;;;7.18;4.13;;;;;;;;;;4821772;29;20071;-63
2022/05/05 10:17:27;;;;;;;7.85;3.60;;;;;;;;;;4821651;29;20049;-63
2022/05/05 10:19:53;;;;;;;6.50;3.40;;;;;;;;;;4818810;29;20537;-62
2022/05/05 10:22:21;;;;;;;7.82;3.75;;;;;;;;;;4825168;29;20060;-63
2022/05/05 10:25:05;;;;;;;5.03;3.80;;;;;;;;;;4823874;29;20031;-62
2022/05/05 10:27:31;;;;;;;6.22;3.47;;;;;;;;;;4825483;29;20046;-63
2022/05/05 10:30:01;;;;;;;7.25;3.80;;;;;;;;;;4822271;29;20038;-62
2022/05/05 10:32:28;;;;;;;5.78;3.47;;;;;;;;;;4812788;29;20503;-62
2022/05/05 10:35:12;;;;;;;8.00;3.30;;;;;;;;;;4816258;29;20065;-64
2022/05/05 10:37:39;;;;;;;5.57;3.55;;;;;;;;;;4815722;29;20042;-62
2022/05/05 10:40:09;;;;;;;6.75;3.50;;;;;;;;;;4813725;29;20030;-61
2022/05/05 10:42:41;;;;;;;6.55;3.53;;;;;;;;;;4817647;29;20121;-62
2022/05/05 10:45:17;;;;;;;4.38;2.95;;;;;;;;;;4824034;29;20030;-61
2022/05/05 10:47:55;;;;;;;4.93;2.80;;;;;;;;;;4813109;29;20027;-62
2022/05/05 10:50:34;;;;;;;6.07;3.40;;;;;;;;;;4814647;29;20555;-62
2022/05/05 10:53:01;;;;;;;6.68;3.70;;;;;;;;;;4824926;29;20479;-62
2022/05/05 10:55:48;;;;;;;6.40;3.78;;;;;;;;;;4824913;29;20035;-62
2022/05/05 10:58:34;;;;;;;5.75;3.83;;;;;;;;;;4818753;29;20046;-63
2022/05/05 11:01:00;;;;;;;7.78;3.63;;;;;;;;;;4822556;29;20075;-62
2022/05/05 11:03:26;;;;;;;4.82;3.40;;;;;;;;;;4808657;29;20038;-62
2022/05/05 11:06:12;;;;;;;7.93;3.63;;;;;;;;;;4838332;29;20125;-62
2022/05/05 11:08:38;;;;;;;7.40;3.47;;;;;;;;;;4806220;29;20099;-61
2022/05/05 11:14:02;;;;;;;5.03;3.42;;;;;;;;;;4806149;29;20041;-66
2022/05/05 11:22:07;;;;;;;8.45;3.60;;;;;;;;;;4825253;29;20118;-62
2022/05/05 11:24:33;;;;;;;6.97;3.40;;;;;;;;;;4829091;29;20482;-63
2022/05/05 11:27:00;;;;;;;5.13;3.40;;;;;;;;;;4830745;29;20031;-60
2022/05/05 11:29:30;;;;;;;5.88;3.28;;;;;;;;;;4830670;29;20367;-60
2022/05/05 11:31:57;;;;;;;5.90;3.20;;;;;;;;;;4826823;29;20137;-60
2022/05/05 11:34:30;;;;;;;4.43;2.75;;;;;;;;;;4827912;29;20034;-60
2022/05/05 11:36:58;;;;;;;4.30;2.97;;;;;;;;;;4835414;29;20041;-61
2022/05/05 11:39:24;;;;;;;3.92;3.08;;;;;;;;;;4832146;29;20425;-61
2022/05/05 11:42:04;;;;;;;5.15;3.17;;;;;;;;;;4829095;29;20075;-61
2022/05/05 11:44:30;;;;;;;7.68;4.00;;;;;;;;;;4817392;29;20039;-61
2022/05/05 11:46:59;;;;;;;6.95;3.53;;;;;;;;;;4833046;29;20038;-62
2022/05/05 11:49:32;;;;;;;9.65;3.85;;;;;;;;;;4841795;29;20041;-62
2022/05/05 11:52:02;;;;;;;4.90;3.35;;;;;;;;;;4842398;29;20040;-62
2022/05/05 11:54:29;;;;;;;6.30;3.63;;;;;;;;;;4842285;29;20050;-63
2022/05/05 11:56:55;;;;;;;5.75;3.80;;;;;;;;;;4842245;29;20479;-62
2022/05/05 12:02:09;;;;;;;4.25;2.97;;;;;;;;;;4842221;29;20141;-63
2022/05/05 12:04:36;;;;;;;7.38;3.22;;;;;;;;;;4832963;29;20380;-62
2022/05/05 12:07:03;;;;;;;7.13;3.42;;;;;;;;;;4823094;29;20038;-61
2022/05/05 12:09:29;;;;;;;7.05;4.95;;;;;;;;;;4823522;29;20114;-62
2022/05/05 12:11:55;;;;;;;6.05;3.78;;;;;;;;;;4823533;29;20042;-61
2022/05/05 12:14:25;;;;;;;7.22;3.42;;;;;;;;;;4823496;29;20022;-61
2022/05/05 12:16:51;;;;;;;6.50;3.40;;;;;;;;;;4823301;29;20030;-61
2022/05/05 12:19:19;;;;;;;6.50;3.90;;;;;;;;;;4823095;29;20475;-61
2022/05/05 12:21:55;;;;;;;7.50;3.85;;;;;;;;;;4822925;29;20126;-61
2022/05/05 12:24:22;;;;;;;4.70;3.33;;;;;;;;;;4823466;29;20443;-61
2022/05/05 12:26:48;;;;;;;5.78;3.28;;;;;;;;;;4823253;29;20030;-61
2022/05/05 12:29:15;;;;;;;6.15;3.30;;;;;;;;;;4822626;29;20087;-61
2022/05/05 12:31:57;;;;;;;5.70;3.47;;;;;;;;;;4822878;29;20031;-61
2022/05/05 12:34:25;;;;;;;;;;;;;;;;;;4823321;29;20106;-61
2022/05/05 12:37:05;;;;;;;7.22;3.55;;;;;;;;;;4823041;29;19924;-62
2022/05/05 12:39:31;;;;;;;7.82;3.50;;;;;;;;;;4823041;29;20041;-61
2022/05/05 12:41:58;;;;;;;4.80;3.78;;;;;;;;;;4823113;29;20031;-62
2022/05/05 12:44:31;;;;;;;5.80;3.33;;;;;;;;;;4822133;29;20624;-62
2022/05/05 12:47:03;;;;;;;5.60;3.65;;;;;;;;;;4822543;29;20380;-62
2022/05/05 12:49:39;;;;;;;5.45;3.20;;;;;;;;;;4823071;29;20094;-62
2022/05/05 12:59:36;;;;;;;7.18;3.45;;;;;;;;;;4823120;29;20062;-63
2022/05/05 13:00:21;;;;;;;10.68;4.45;;;;;;;;;;4804278;29;20054;-62
2022/05/05 13:02:47;;;;;;;4.72;3.53;;;;;;;;;;4804177;29;20121;-62
2022/05/05 13:05:14;;;;;;;8.10;3.70;;;;;;;;;;4786678;29;20104;-62
2022/05/05 13:07:40;;;;;;;6.07;3.33;;;;;;;;;;4803900;29;20045;-62
2022/05/05 13:10:06;;;;;;;6.70;3.40;;;;;;;;;;4804405;29;20037;-64
2022/05/05 13:12:32;;;;;;;6.40;3.65;;;;;;;;;;4804114;29;20099;-61
2022/05/05 13:14:58;;;;;;;6.63;3.10;;;;;;;;;;4804281;29;20069;-61
2022/05/05 13:17:25;;;;;;;6.28;3.70;;;;;;;;;;4803136;29;20106;-62
2022/05/05 13:19:51;;;;;;;6.85;3.50;;;;;;;;;;4803800;29;20587;-61
2022/05/05 13:22:17;;;;;;;6.47;3.20;;;;;;;;;;4803657;29;20138;-63
2022/05/05 13:24:43;;;;;;;8.73;4.13;;;;;;;;;;4804013;29;20041;-63
2022/05/05 13:27:09;;;;;;;8.35;4.20;;;;;;;;;;4804164;29;20130;-62
2022/05/05 13:29:35;;;;;;;7.13;3.30;;;;;;;;;;4787450;29;20433;-62
2022/05/05 13:32:01;;;;;;;6.18;3.17;;;;;;;;;;4804016;29;20034;-61
2022/05/05 13:34:28;;;;;;;8.40;3.80;;;;;;;;;;4803439;29;20035;-62
2022/05/05 13:36:54;;;;;;;3.75;3.03;;;;;;;;;;4803705;29;20463;-64
2022/05/05 13:39:20;;;;;;;10.95;4.03;;;;;;;;;;4802600;29;20400;-62
2022/05/05 13:41:46;;;;;;;4.97;3.45;;;;;;;;;;4802923;29;20035;-62
2022/05/05 13:44:12;;;;;;;4.80;3.25;;;;;;;;;;4803160;29;20038;-62
2022/05/05 13:46:38;;;;;;;5.78;3.35;;;;;;;;;;4803016;29;20031;-63
2022/05/05 13:49:05;;;;;;;5.32;3.22;;;;;;;;;;4802275;29;20043;-63
2022/05/05 13:51:31;;;;;;;8.20;3.10;;;;;;;;;;4802232;29;20399;-61
2022/05/05 13:53:58;;;;;;;5.25;3.13;;;;;;;;;;4802329;29;20027;-62
2022/05/05 13:56:24;;;;;;;21.38;12.70;;;;;;;;;;4802236;29;20034;-62
2022/05/05 13:58:50;;;;;;;7.97;4.28;;;;;;;;;;4800939;29;20072;-62
2022/05/05 14:01:16;;;;;;;4.55;3.03;;;;;;;;;;4803523;29;20027;-62
2022/05/05 14:03:42;;;;;;;5.85;3.20;;;;;;;;;;4802092;29;20054;-62
2022/05/05 14:06:08;;;;;;;6.68;3.35;;;;;;;;;;4803501;29;20057;-61
2022/05/05 14:14:03;;;;;;;6.45;2.95;;;;;;;;;;4803594;29;20054;-61
2022/05/05 14:16:31;;;;;;;7.30;3.05;;;;;;;;;;4801654;29;20035;-61
2022/05/05 14:18:57;;;;;;;10.38;3.47;;;;;;;;;;4802072;29;20663;-62
2022/05/05 14:21:23;;;;;;;5.63;3.13;;;;;;;;;;4802285;29;20035;-65
2022/05/05 14:23:49;;;;;;;5.20;2.60;;;;;;;;;;4802435;29;20059;-61
2022/05/05 14:26:16;;;;;;;7.05;3.40;;;;;;;;;;4802316;29;20038;-63
2022/05/05 14:28:42;;;;;;;5.80;2.90;;;;;;;;;;4801521;29;20044;-61
2022/05/05 14:31:08;;;;;;;4.90;2.97;;;;;;;;;;4802242;29;20034;-61
2022/05/05 14:33:34;;;;;;;5.32;3.13;;;;;;;;;;4801903;29;20400;-61
2022/05/05 14:36:00;;;;;;;6.25;2.90;;;;;;;;;;4802918;29;20122;-62
2022/05/05 14:38:26;;;;;;;5.28;3.58;;;;;;;;;;4803125;29;20046;-62
2022/05/05 14:40:52;;;;;;;6.88;3.63;;;;;;;;;;4803126;29;20462;-62
2022/05/05 14:43:18;;;;;;;5.65;3.17;;;;;;;;;;4803455;29;20136;-62
2022/05/05 14:45:45;;;;;;;5.03;2.75;;;;;;;;;;4803070;29;20104;-62
2022/05/05 14:48:11;;;;;;;6.60;3.53;;;;;;;;;;4802516;29;20041;-63
2022/05/05 14:50:37;;;;;;;6.63;2.90;;;;;;;;;;4802145;29;20424;-64
2022/05/05 14:53:03;;;;;;;6.30;3.20;;;;;;;;;;4802728;29;20369;-63
2022/05/05 14:55:29;;;;;;;8.13;3.10;;;;;;;;;;4802310;29;20054;-64
2022/05/05 14:57:55;;;;;;;5.57;3.03;;;;;;;;;;4801850;29;20072;-61
2022/05/05 15:00:21;;;;;;;7.00;3.40;;;;;;;;;;4801623;29;20023;-62
2022/05/05 15:02:47;;;;;;;6.60;3.47;;;;;;;;;;4802039;29;20062;-61
2022/05/05 15:05:16;;;;;;;8.18;3.30;;;;;;;;;;4815121;29;20414;-62
2022/05/05 15:07:42;;;;;;;8.88;3.92;;;;;;;;;;4824057;29;20040;-61
2022/05/05 15:10:08;;;;;;;5.65;3.55;;;;;;;;;;4824550;29;20030;-63
2022/05/05 15:12:34;;;;;;;5.82;2.90;;;;;;;;;;4824731;29;20041;-61
2022/05/05 15:15:01;;;;;;;7.30;3.30;;;;;;;;;;4824432;29;20034;-61
2022/05/05 15:17:27;;;;;;;4.63;3.05;;;;;;;;;;4824298;29;20498;-61
2022/05/05 15:19:53;;;;;;;11.20;4.57;;;;;;;;;;4824395;29;20049;-62
2022/05/05 15:22:19;;;;;;;12.95;5.70;;;;;;;;;;4824102;29;20033;-61
2022/05/05 15:25:02;;;;;;;7.45;3.42;;;;;;;;;;4824347;29;20039;-60
2022/05/05 15:27:29;;;;;;;7.03;4.07;;;;;;;;;;4824128;29;20059;-61
2022/05/05 15:29:56;;;;;;;11.07;5.22;;;;;;;;;;4824283;29;20031;-60
2022/05/05 15:32:25;;;;;;;6.82;4.78;;;;;;;;;;4823929;29;20067;-61
2022/05/05 15:34:53;;;;;;;8.95;4.95;;;;;;;;;;4824025;29;20478;-66